Aviation Digital Data Service (ADDS)

Output produced by METARs form (2131 UTC 05 October 2015)
found at http://www.aviationweather.gov/adds/metars/
METAR text: KCCU 052115Z AUTO 00000KT 10SM SCT026 OVC030 08/00 A3041 RMK AO2 LTG DSNT W
Conditions at: KCCU (RED CLIFF PASS , CO, US) observed 2115 UTC 05 October 2015
Temperature: 8.0°C (46°F)
Dewpoint: 0.0°C (32°F) [RH = 57%]
Pressure (altimeter): 30.41 inches Hg (1029.9 mb)
Winds: calm
Visibility: 10 or more miles (16+ km)
Ceiling: 3000 feet AGL
Clouds: scattered clouds at 2600 feet AGL
overcast cloud deck at 3000 feet AGL
Weather: automated observation with no human augmentation;
there may or may not be significant weather present at this time